createdAt,value
2017-10-07T00:00:21.223Z,99.02
2017-10-07T00:02:14.640Z,98.36
2017-10-07T00:03:14.671Z,98.60
2017-10-07T00:05:15.661Z,98.55
2017-10-07T00:06:08.123Z,98.60
2017-10-07T00:08:09.105Z,98.64
2017-10-07T00:09:01.462Z,98.64
2017-10-07T00:11:02.498Z,98.45
2017-10-07T00:11:54.867Z,98.74
2017-10-07T00:13:56.913Z,98.55
2017-10-07T00:14:49.181Z,98.26
2017-10-07T00:16:52.232Z,98.45
2017-10-07T00:17:43.684Z,98.17
2017-10-07T00:19:45.611Z,99.11
2017-10-07T00:20:37.974Z,98.93
2017-10-07T00:22:31.419Z,98.26
2017-10-07T00:23:31.370Z,99.21
2017-10-07T00:25:32.494Z,99.02
2017-10-07T00:26:24.873Z,98.64
2017-10-07T00:28:25.921Z,98.74
2017-10-07T00:29:18.452Z,98.64
2017-10-07T00:31:19.328Z,98.93
2017-10-07T00:32:11.600Z,98.17
2017-10-07T00:34:13.729Z,98.64
2017-10-07T00:35:13.757Z,98.36
2017-10-07T00:36:59.419Z,99.21
2017-10-07T00:37:59.457Z,98.55
2017-10-07T00:40:00.438Z,98.50
2017-10-07T00:40:52.808Z,98.79
2017-10-07T00:42:53.878Z,98.69
2017-10-07T00:43:46.318Z,98.79
2017-10-07T00:45:39.692Z,98.69
2017-10-07T00:46:39.639Z,98.69
2017-10-07T00:48:40.666Z,98.22
2017-10-07T00:50:54.088Z,98.41
2017-10-07T00:51:46.448Z,98.22
2017-10-07T00:53:47.550Z,98.12
2017-10-07T00:54:39.855Z,98.31
2017-10-07T00:56:42.842Z,98.03
2017-10-07T00:57:34.252Z,98.31
2017-10-07T00:59:35.267Z,98.31
2017-10-07T01:00:27.592Z,98.60
2017-10-07T01:02:28.714Z,98.31
2017-10-07T01:03:21.018Z,98.50
2017-10-07T01:05:23.066Z,98.41
2017-10-07T01:06:15.429Z,98.41
2017-10-07T01:08:16.396Z,98.31
2017-10-07T01:09:08.776Z,98.31
2017-10-07T01:11:09.861Z,97.64
2017-10-07T01:12:02.210Z,97.74
2017-10-07T01:14:03.264Z,98.31
2017-10-07T01:14:55.627Z,98.22
2017-10-07T01:16:56.624Z,98.31
2017-10-07T01:17:49.003Z,98.12
2017-10-07T01:19:50.121Z,98.60
2017-10-07T01:20:42.395Z,98.22
2017-10-07T01:22:44.376Z,98.41
2017-10-07T01:23:36.802Z,98.22
2017-10-07T01:25:37.860Z,97.74
2017-10-07T01:26:30.162Z,98.12
2017-10-07T01:28:31.272Z,98.31
2017-10-07T01:29:23.604Z,98.60
2017-10-07T01:31:17.078Z,98.31
2017-10-07T01:32:17.069Z,98.31
2017-10-07T01:34:19.061Z,98.31
2017-10-07T01:35:10.424Z,98.22
2017-10-07T01:37:12.472Z,97.83
2017-10-07T01:38:03.869Z,98.22
2017-10-07T01:40:05.851Z,98.41
2017-10-07T01:40:57.238Z,98.31
2017-10-07T01:42:58.267Z,98.12
2017-10-07T01:43:50.712Z,98.50
2017-10-07T01:45:53.649Z,98.31
2017-10-07T01:46:45.019Z,98.41
2017-10-07T01:48:39.459Z,98.41
2017-10-07T01:49:39.403Z,97.55
2017-10-07T01:51:32.867Z,98.22
2017-10-07T01:52:32.861Z,97.64
2017-10-07T01:54:27.191Z,98.22
2017-10-07T01:55:27.228Z,98.31
2017-10-07T01:57:21.670Z,98.03
2017-10-07T01:58:21.689Z,97.64
2017-10-07T02:00:22.708Z,97.64
2017-10-07T02:01:15.010Z,97.93
2017-10-07T02:03:16.081Z,97.36
2017-10-07T02:04:16.024Z,97.45
2017-10-07T02:06:01.864Z,98.03
2017-10-07T02:07:01.840Z,97.83
2017-10-07T02:09:02.847Z,97.83
2017-10-07T02:09:55.203Z,97.74
2017-10-07T02:11:57.226Z,97.45
2017-10-07T02:12:48.617Z,97.93
2017-10-07T02:14:49.674Z,97.93
2017-10-07T02:15:42.004Z,98.03
2017-10-07T02:17:43.090Z,97.83
2017-10-07T02:18:35.411Z,97.55
2017-10-07T02:20:28.756Z,97.74
2017-10-07T02:21:28.769Z,97.93
2017-10-07T02:23:29.813Z,98.03
2017-10-07T02:24:22.159Z,98.22
2017-10-07T02:26:23.200Z,98.12
2017-10-07T02:27:15.520Z,98.03
2017-10-07T02:29:08.959Z,97.27
2017-10-07T02:30:08.915Z,97.83
2017-10-07T02:32:09.975Z,97.64
2017-10-07T02:33:02.323Z,97.60
2017-10-07T02:34:56.674Z,97.41
2017-10-07T02:35:56.752Z,97.78
2017-10-07T02:37:51.228Z,97.69
2017-10-07T02:38:51.161Z,97.69
2017-10-07T02:40:44.523Z,97.60
2017-10-07T02:41:44.532Z,97.69
2017-10-07T02:43:37.943Z,98.36
2017-10-07T02:44:37.995Z,98.17
2017-10-07T02:46:39.956Z,97.69
2017-10-07T02:47:31.297Z,97.31
2017-10-07T02:49:32.304Z,97.50
2017-10-07T02:50:24.727Z,97.69
2017-10-07T02:52:18.113Z,97.97
2017-10-07T02:53:18.166Z,97.88
2017-10-07T02:55:12.548Z,98.07
2017-10-07T02:56:12.559Z,98.17
2017-10-07T02:58:06.953Z,97.78
2017-10-07T02:59:06.970Z,98.36
2017-10-07T03:01:08.004Z,98.17
2017-10-07T03:02:00.345Z,98.17
2017-10-07T03:04:01.469Z,98.36
2017-10-07T03:04:53.698Z,97.97
2017-10-07T03:06:54.801Z,98.07
2017-10-07T03:07:47.093Z,98.26
2017-10-07T03:09:40.527Z,98.36
2017-10-07T03:10:40.529Z,98.26
2017-10-07T03:12:42.620Z,98.36
2017-10-07T03:13:34.908Z,98.17
2017-10-07T03:15:35.950Z,98.55
2017-10-07T03:16:28.327Z,97.97
2017-10-07T03:18:30.612Z,98.26
2017-10-07T03:19:22.718Z,98.45
2017-10-07T03:21:24.757Z,98.55
2017-10-07T03:22:16.062Z,98.26
2017-10-07T03:24:17.148Z,98.93
2017-10-07T03:25:09.455Z,98.17
2017-10-07T03:27:11.511Z,98.74
2017-10-07T03:28:03.852Z,98.02
2017-10-07T03:29:57.362Z,98.40
2017-10-07T03:30:57.304Z,98.40
2017-10-07T03:32:51.793Z,98.40
2017-10-07T03:33:51.712Z,98.88
2017-10-07T03:35:53.707Z,98.50
2017-10-07T03:36:46.112Z,99.07
2017-10-07T03:38:48.272Z,98.97
2017-10-07T03:39:39.499Z,98.50
2017-10-07T03:41:32.930Z,98.50
2017-10-07T03:42:32.892Z,98.02
2017-10-07T03:44:36.011Z,98.69
2017-10-07T03:45:27.308Z,98.69
2017-10-07T03:47:29.285Z,98.97
2017-10-07T03:48:20.783Z,98.50
2017-10-07T03:50:14.137Z,99.07
2017-10-07T03:51:14.079Z,99.07
2017-10-07T03:53:07.507Z,98.50
2017-10-07T03:54:07.510Z,99.35
2017-10-07T03:56:01.899Z,98.88
2017-10-07T03:57:01.854Z,99.16
2017-10-07T03:58:55.374Z,98.79
2017-10-07T03:59:55.333Z,98.69
2017-10-07T04:01:49.806Z,98.97
2017-10-07T04:02:49.692Z,98.97
2017-10-07T04:04:44.189Z,98.88
2017-10-07T04:05:44.173Z,99.99
2017-10-07T04:07:38.564Z,99.26
2017-10-07T04:08:46.247Z,98.97
2017-10-07T04:10:39.717Z,99.44
2017-10-07T04:11:31.927Z,99.64
2017-10-07T04:13:35.016Z,99.64
2017-10-07T04:14:35.038Z,99.35
2017-10-07T04:16:28.372Z,99.58
2017-10-07T04:17:19.800Z,99.68
2017-10-07T04:19:22.893Z,99.73
2017-10-07T04:20:14.155Z,99.64
2017-10-07T04:22:07.698Z,99.99
2017-10-07T04:23:07.706Z,99.99
2017-10-07T04:25:09.552Z,99.99
2017-10-07T04:26:01.922Z,99.99
2017-10-07T04:28:02.915Z,99.54
2017-10-07T04:28:55.340Z,99.44
2017-10-07T04:30:57.392Z,99.44
2017-10-07T04:31:48.669Z,99.44
2017-10-07T04:33:50.719Z,98.97
2017-10-07T04:34:43.199Z,99.35
2017-10-07T04:36:44.206Z,98.97
2017-10-07T04:37:36.538Z,99.35
2017-10-07T04:39:29.966Z,98.97
2017-10-07T04:40:29.971Z,98.97
2017-10-07T04:42:23.437Z,98.79
2017-10-07T04:43:23.319Z,99.35
2017-10-07T04:45:16.717Z,98.97
2017-10-07T04:46:16.718Z,99.26
2017-10-07T04:48:10.192Z,98.88
2017-10-07T04:49:10.117Z,98.88
2017-10-07T04:51:03.648Z,98.88
2017-10-07T04:52:03.511Z,98.59
2017-10-07T04:53:56.932Z,98.97
2017-10-07T04:54:56.875Z,99.07
2017-10-07T04:56:50.331Z,98.97
2017-10-07T04:57:50.292Z,98.31
2017-10-07T04:59:44.714Z,97.88
2017-10-07T05:00:44.746Z,98.92
2017-10-07T05:02:45.733Z,98.45
2017-10-07T05:03:38.100Z,98.92
2017-10-07T05:05:39.085Z,98.83
2017-10-07T05:06:31.515Z,98.73
2017-10-07T05:08:33.602Z,98.92
2017-10-07T05:09:24.972Z,98.92
2017-10-07T05:11:28.380Z,99.11
2017-10-07T05:12:18.298Z,98.92
2017-10-07T05:14:11.727Z,98.92
2017-10-07T05:15:11.633Z,98.92
2017-10-07T05:17:12.859Z,98.26
2017-10-07T05:18:05.046Z,98.16
2017-10-07T05:20:06.130Z,98.07
2017-10-07T05:20:58.441Z,97.69
2017-10-07T05:22:59.723Z,98.16
2017-10-07T05:23:51.881Z,97.41
2017-10-07T05:25:53.886Z,97.50
2017-10-07T05:26:46.263Z,97.88
2017-10-07T05:28:48.330Z,97.60
2017-10-07T05:29:40.700Z,97.31
2017-10-07T05:31:41.757Z,97.41
2017-10-07T05:32:34.103Z,97.41
2017-10-07T05:34:27.432Z,98.45
2017-10-07T05:35:27.474Z,98.45
2017-10-07T05:37:20.875Z,99.30
2017-10-07T05:38:20.868Z,98.54
2017-10-07T05:40:22.100Z,98.83
2017-10-07T05:41:14.416Z,99.77
2017-10-07T05:43:10.620Z,98.54
2017-10-07T05:44:18.878Z,98.07
2017-10-07T05:46:03.377Z,98.54
2017-10-07T05:47:12.080Z,98.35
2017-10-07T05:49:06.039Z,98.07
2017-10-07T05:50:06.478Z,98.16
2017-10-07T05:51:53.172Z,97.97
2017-10-07T05:52:53.697Z,97.41
2017-10-07T05:54:47.747Z,98.07
2017-10-07T05:55:48.089Z,98.83
2017-10-07T05:57:40.622Z,98.73
2017-10-07T05:58:40.374Z,98.35
2017-10-07T06:00:34.978Z,98.45
2017-10-07T06:01:34.892Z,99.21
2017-10-07T06:03:28.062Z,99.49
2017-10-07T06:04:28.069Z,99.11
2017-10-07T06:06:21.528Z,99.99
2017-10-07T06:07:21.449Z,99.73
2017-10-07T06:09:14.866Z,99.83
2017-10-07T06:10:14.862Z,99.44
2017-10-07T06:12:08.417Z,99.73
2017-10-07T06:13:08.252Z,99.73
2017-10-07T06:15:01.650Z,98.88
2017-10-07T06:16:01.707Z,98.83
2017-10-07T06:17:55.042Z,98.74
2017-10-07T06:18:55.045Z,99.30
2017-10-07T06:20:48.480Z,99.40
2017-10-07T06:21:48.486Z,98.07
2017-10-07T06:23:42.092Z,97.60
2017-10-07T06:24:41.818Z,97.97
2017-10-07T06:26:37.352Z,97.31
2017-10-07T06:27:37.304Z,97.88
2017-10-07T06:29:30.690Z,97.60
2017-10-07T06:30:30.655Z,97.88
2017-10-07T06:32:25.045Z,97.60
2017-10-07T06:33:25.116Z,97.78
2017-10-07T06:35:26.226Z,97.03
2017-10-07T06:36:18.520Z,96.74
2017-10-07T06:38:12.910Z,97.22
2017-10-07T06:39:12.964Z,97.22
2017-10-07T06:41:06.515Z,97.74
2017-10-07T06:42:06.351Z,97.93
2017-10-07T06:43:59.731Z,96.60
2017-10-07T06:44:59.706Z,97.08
2017-10-07T06:46:53.187Z,97.08
2017-10-07T06:47:53.159Z,96.89
2017-10-07T06:49:46.538Z,97.27
2017-10-07T06:50:46.552Z,96.98
2017-10-07T06:52:41.963Z,96.60
2017-10-07T06:53:41.937Z,97.27
2017-10-07T06:55:35.332Z,98.03
2017-10-07T06:56:35.549Z,96.79
2017-10-07T06:58:28.794Z,97.36
2017-10-07T06:59:28.765Z,97.45
2017-10-07T07:01:22.146Z,97.74
2017-10-07T07:02:22.139Z,97.64
2017-10-07T07:04:15.570Z,97.27
2017-10-07T07:05:15.550Z,96.31
2017-10-07T07:07:08.985Z,96.94
2017-10-07T07:08:08.986Z,96.36
2017-10-07T07:10:10.973Z,95.41
2017-10-07T07:11:02.360Z,95.22
2017-10-07T07:12:55.763Z,95.32
2017-10-07T07:13:55.769Z,94.65
2017-10-07T07:15:49.098Z,93.98
2017-10-07T07:16:49.138Z,94.37
2017-10-07T07:18:42.559Z,94.46
2017-10-07T07:19:42.552Z,94.93
2017-10-07T07:21:35.953Z,94.51
2017-10-07T07:22:36.370Z,94.51
2017-10-07T07:24:29.444Z,93.46
2017-10-07T07:25:29.350Z,93.37
2017-10-07T07:27:22.813Z,93.37
2017-10-07T07:28:22.784Z,93.55
2017-10-07T07:30:16.185Z,95.84
2017-10-07T07:31:16.162Z,96.22
2017-10-07T07:33:09.632Z,94.13
2017-10-07T07:34:09.635Z,94.51
2017-10-07T07:36:02.655Z,93.37
2017-10-07T07:37:02.621Z,93.18
2017-10-07T07:38:56.044Z,93.46
2017-10-07T07:39:56.093Z,93.84
2017-10-07T07:41:50.483Z,92.99
2017-10-07T07:42:50.444Z,91.84
2017-10-07T07:44:43.849Z,92.79
2017-10-07T07:45:43.865Z,92.89
2017-10-07T07:47:37.269Z,92.32
2017-10-07T07:48:37.256Z,91.94
2017-10-07T07:50:30.652Z,92.51
2017-10-07T07:51:30.623Z,92.70
2017-10-07T07:53:25.099Z,92.41
2017-10-07T07:54:25.087Z,92.51
2017-10-07T07:56:19.524Z,92.89
2017-10-07T07:57:19.482Z,92.03
2017-10-07T07:59:13.928Z,92.03
2017-10-07T08:00:13.876Z,91.56
2017-10-07T08:02:07.255Z,92.70
2017-10-07T08:03:07.256Z,93.08
2017-10-07T08:05:00.661Z,91.94
2017-10-07T08:06:00.760Z,91.75
2017-10-07T08:07:54.152Z,91.60
2017-10-07T08:08:54.090Z,91.89
2017-10-07T08:10:47.483Z,92.08
2017-10-07T08:11:47.460Z,91.27
2017-10-07T08:13:41.904Z,91.75
2017-10-07T08:14:41.860Z,92.03
2017-10-07T08:16:36.256Z,91.94
2017-10-07T08:17:36.269Z,92.89
2017-10-07T08:19:29.643Z,92.03
2017-10-07T08:20:29.670Z,92.60
2017-10-07T08:22:23.041Z,92.03
2017-10-07T08:23:23.071Z,92.22
2017-10-07T08:25:16.481Z,92.13
2017-10-07T08:26:16.477Z,91.56
2017-10-07T08:28:09.872Z,92.79
2017-10-07T08:29:09.971Z,92.60
2017-10-07T08:31:04.316Z,92.18
2017-10-07T08:32:04.301Z,91.79
2017-10-07T08:33:57.838Z,90.56
2017-10-07T08:34:57.762Z,90.65
2017-10-07T08:36:51.218Z,91.31
2017-10-07T08:37:51.097Z,91.31
2017-10-07T08:39:44.551Z,91.41
2017-10-07T08:40:44.492Z,91.03
2017-10-07T08:42:38.005Z,90.27
2017-10-07T08:43:37.940Z,88.75
2017-10-07T08:45:31.300Z,89.26
2017-10-07T08:46:31.377Z,88.41
2017-10-07T08:48:24.709Z,88.41
2017-10-07T08:49:24.796Z,87.65
2017-10-07T08:51:18.123Z,87.46
2017-10-07T08:52:18.122Z,86.79
2017-10-07T08:54:11.566Z,85.60
2017-10-07T08:55:11.557Z,85.74
2017-10-07T08:57:04.963Z,86.51
2017-10-07T08:58:04.915Z,85.64
2017-10-07T08:59:58.392Z,86.88
2017-10-07T09:00:58.353Z,87.31
2017-10-07T09:02:51.885Z,85.46
2017-10-07T09:03:51.836Z,86.07
2017-10-07T09:05:55.932Z,86.12
2017-10-07T09:06:53.988Z,85.27
2017-10-07T09:08:47.312Z,85.36
2017-10-07T09:09:39.633Z,85.08
2017-10-07T09:11:33.424Z,86.74
2017-10-07T09:12:41.545Z,86.45
2017-10-07T09:14:35.160Z,85.97
2017-10-07T09:15:26.445Z,85.02
2017-10-07T09:17:28.519Z,83.97
2017-10-07T09:18:20.885Z,83.02
2017-10-07T09:20:22.886Z,81.82
2017-10-07T09:21:23.949Z,81.82
2017-10-07T09:23:17.307Z,82.68
2017-10-07T09:24:08.783Z,83.25
2017-10-07T09:26:11.625Z,83.35
2017-10-07T09:27:02.972Z,83.78
2017-10-07T09:29:04.176Z,84.36
2017-10-07T09:30:05.224Z,82.92
2017-10-07T09:31:58.635Z,82.92
2017-10-07T09:32:50.857Z,83.40
2017-10-07T09:34:52.926Z,82.45
2017-10-07T09:35:45.330Z,82.59
2017-10-07T09:37:47.301Z,82.68
2017-10-07T09:38:38.654Z,82.40
2017-10-07T09:40:40.761Z,80.87
2017-10-07T09:41:33.064Z,81.06
2017-10-07T09:43:35.758Z,80.81
2017-10-07T09:44:26.663Z,80.01
2017-10-07T09:46:29.664Z,79.35
2017-10-07T09:47:29.825Z,80.33
2017-10-07T09:49:24.113Z,79.43
2017-10-07T09:50:14.309Z,77.57
2017-10-07T09:52:08.935Z,76.27
2017-10-07T09:53:08.779Z,74.08
2017-10-07T09:55:02.203Z,76.23
2017-10-07T09:56:02.213Z,75.42
2017-10-07T09:57:55.747Z,71.16
2017-10-07T09:58:55.396Z,71.95
2017-10-07T10:00:56.153Z,71.59
2017-10-07T10:01:48.435Z,72.74
2017-10-07T10:03:50.435Z,73.50
2017-10-07T10:04:50.710Z,70.42
2017-10-07T10:06:35.216Z,70.83
2017-10-07T10:07:35.214Z,72.87
2017-10-07T10:09:30.595Z,72.93
2017-10-07T10:10:30.681Z,74.17
2017-10-07T10:12:24.963Z,72.24
2017-10-07T10:13:24.961Z,73.07
2017-10-07T10:15:18.392Z,72.64
2017-10-07T10:16:18.348Z,71.69
2017-10-07T10:18:11.778Z,72.55
2017-10-07T10:19:11.798Z,71.59
2017-10-07T10:21:05.125Z,73.50
2017-10-07T10:22:05.164Z,75.60
2017-10-07T10:23:58.575Z,75.76
2017-10-07T10:24:58.648Z,74.61
2017-10-07T10:26:51.976Z,73.28
2017-10-07T10:27:52.016Z,72.45
2017-10-07T10:29:46.417Z,67.88
2017-10-07T10:30:46.405Z,62.65
2017-10-07T10:32:39.753Z,60.99
2017-10-07T10:33:39.781Z,58.56
2017-10-07T10:35:33.175Z,59.88
2017-10-07T10:36:33.204Z,63.76
2017-10-07T10:38:26.630Z,59.06
2017-10-07T10:39:26.781Z,54.06
2017-10-07T10:41:20.024Z,53.79
2017-10-07T10:42:20.112Z,55.34
2017-10-07T10:44:13.471Z,61.05
2017-10-07T10:45:13.434Z,59.64
2017-10-07T10:47:07.843Z,48.66
2017-10-07T10:48:07.871Z,46.11
2017-10-07T10:50:01.320Z,42.74
2017-10-07T10:51:01.401Z,45.81
2017-10-07T10:52:54.679Z,53.71
2017-10-07T10:53:54.719Z,58.27
2017-10-07T10:55:48.128Z,58.12
2017-10-07T10:56:48.146Z,57.97
2017-10-07T10:58:41.551Z,60.55
2017-10-07T10:59:41.569Z,56.93
2017-10-07T11:01:35.018Z,48.13
2017-10-07T11:02:35.036Z,49.48
2017-10-07T11:04:28.380Z,52.93
2017-10-07T11:05:28.422Z,55.27
2017-10-07T11:07:21.947Z,55.49
2017-10-07T11:08:21.813Z,55.31
2017-10-07T11:10:15.327Z,60.35
2017-10-07T11:11:15.233Z,62.14
2017-10-07T11:13:08.649Z,63.83
2017-10-07T11:14:08.663Z,64.50
2017-10-07T11:16:02.054Z,59.68
2017-10-07T11:17:02.069Z,57.86
2017-10-07T11:18:56.522Z,58.36
2017-10-07T11:19:56.512Z,55.23
2017-10-07T11:21:49.919Z,55.07
2017-10-07T11:22:49.898Z,54.04
2017-10-07T11:24:44.271Z,52.02
2017-10-07T11:25:44.376Z,51.88
2017-10-07T11:27:38.771Z,55.68
2017-10-07T11:28:38.716Z,58.15
2017-10-07T11:30:32.279Z,56.39
2017-10-07T11:31:32.184Z,59.75
2017-10-07T11:33:25.592Z,58.22
2017-10-07T11:34:25.592Z,59.05
2017-10-07T11:36:19.133Z,62.65
2017-10-07T11:37:19.042Z,63.80
2017-10-07T11:39:12.461Z,58.63
2017-10-07T11:40:12.452Z,59.20
2017-10-07T11:42:06.899Z,58.80
2017-10-07T11:43:06.895Z,58.12
2017-10-07T11:45:00.244Z,59.75
2017-10-07T11:46:00.340Z,59.66
2017-10-07T11:47:53.855Z,59.72
2017-10-07T11:48:53.760Z,58.67
2017-10-07T11:50:47.143Z,60.20
2017-10-07T11:51:47.327Z,60.96
2017-10-07T11:53:40.542Z,58.06
2017-10-07T11:54:40.485Z,55.73
2017-10-07T11:56:35.105Z,52.67
2017-10-07T11:57:35.294Z,51.44
2017-10-07T11:59:28.635Z,52.60
2017-10-07T12:00:28.534Z,50.49
2017-10-07T12:02:22.892Z,54.15
2017-10-07T12:03:22.917Z,56.13
2017-10-07T12:05:26.071Z,56.56
2017-10-07T12:06:17.407Z,56.77
2017-10-07T12:08:12.743Z,57.41
2017-10-07T12:09:11.765Z,56.48
2017-10-07T12:11:05.395Z,52.09
2017-10-07T12:12:05.325Z,51.14
2017-10-07T12:13:58.692Z,51.10
2017-10-07T12:14:58.577Z,51.54
2017-10-07T12:16:54.422Z,53.31
2017-10-07T12:17:54.058Z,52.57
2017-10-07T12:19:47.831Z,48.66
2017-10-07T12:20:47.682Z,49.36
2017-10-07T12:22:41.077Z,53.23
2017-10-07T12:23:40.600Z,55.44
2017-10-07T12:25:35.024Z,58.22
2017-10-07T12:26:34.995Z,57.92
2017-10-07T12:28:28.544Z,55.31
2017-10-07T12:29:28.440Z,53.75
2017-10-07T12:31:21.814Z,57.99
2017-10-07T12:32:21.894Z,55.86
2017-10-07T12:34:17.262Z,56.17
2017-10-07T12:35:17.353Z,55.19
2017-10-07T12:37:10.935Z,57.97
2017-10-07T12:38:10.682Z,57.10
2017-10-07T12:40:05.157Z,59.59
2017-10-07T12:41:05.131Z,57.84
2017-10-07T12:42:58.655Z,58.89
2017-10-07T12:43:58.510Z,59.66
2017-10-07T12:45:53.889Z,57.93
2017-10-07T12:46:54.024Z,58.80
2017-10-07T12:48:47.264Z,60.90
2017-10-07T12:49:47.408Z,61.19
2017-10-07T12:51:42.150Z,60.13
2017-10-07T12:52:42.094Z,59.27
2017-10-07T12:54:35.662Z,59.72
2017-10-07T12:55:35.494Z,59.34
2017-10-07T12:57:28.637Z,60.49
2017-10-07T12:58:28.644Z,60.49
2017-10-07T13:00:31.683Z,61.16
2017-10-07T13:01:24.137Z,61.25
2017-10-07T13:03:19.584Z,61.16
2017-10-07T13:04:19.627Z,61.60
2017-10-07T13:06:22.536Z,61.72
2017-10-07T13:07:13.934Z,62.68
2017-10-07T13:09:17.460Z,62.49
2017-10-07T13:10:09.322Z,61.79
2017-10-07T13:12:03.567Z,63.93
2017-10-07T13:13:03.666Z,62.68
2017-10-07T13:14:57.275Z,62.49
2017-10-07T13:15:57.041Z,62.59
2017-10-07T13:17:52.508Z,61.92
2017-10-07T13:18:52.642Z,62.59
2017-10-07T13:20:45.980Z,62.21
2017-10-07T13:21:45.970Z,60.87
2017-10-07T13:23:40.343Z,61.06
2017-10-07T13:24:40.357Z,60.99
2017-10-07T13:26:35.584Z,61.57
2017-10-07T13:27:34.755Z,61.76
2017-10-07T13:29:28.186Z,60.52
2017-10-07T13:30:28.163Z,60.23
2017-10-07T13:32:21.523Z,59.56
2017-10-07T13:33:21.551Z,60.58
2017-10-07T13:35:14.958Z,61.06
2017-10-07T13:36:14.993Z,60.87
2017-10-07T13:38:08.542Z,62.04
2017-10-07T13:39:08.383Z,61.16
2017-10-07T13:41:03.551Z,62.87
2017-10-07T13:42:02.872Z,62.81
2017-10-07T13:43:56.249Z,62.11
2017-10-07T13:44:56.174Z,62.11
2017-10-07T13:46:49.693Z,61.25
2017-10-07T13:47:50.455Z,62.21
2017-10-07T13:49:45.540Z,62.21
2017-10-07T13:50:45.436Z,61.09
2017-10-07T13:52:38.417Z,60.58
2017-10-07T13:53:36.677Z,60.80
2017-10-07T13:55:33.548Z,60.52
2017-10-07T13:56:31.276Z,60.33
2017-10-07T13:58:24.759Z,60.71
2017-10-07T13:59:24.736Z,59.75
2017-10-07T14:01:18.385Z,60.52
2017-10-07T14:02:18.345Z,60.77
2017-10-07T14:04:11.771Z,60.39
2017-10-07T14:05:16.143Z,62.11
2017-10-07T14:07:06.295Z,61.25
2017-10-07T14:08:07.668Z,61.63
2017-10-07T14:10:00.338Z,63.45
2017-10-07T14:11:00.518Z,64.12
2017-10-07T14:12:55.188Z,64.69
2017-10-07T14:13:53.881Z,63.35
2017-10-07T14:15:55.017Z,61.92
2017-10-07T14:16:47.358Z,62.40
2017-10-07T14:18:43.948Z,63.03
2017-10-07T14:19:44.586Z,62.87
2017-10-07T14:21:36.071Z,61.92
2017-10-07T14:22:37.876Z,61.82
2017-10-07T14:24:42.928Z,63.42
2017-10-07T14:25:42.194Z,64.18
2017-10-07T14:27:35.590Z,64.18
2017-10-07T14:28:35.730Z,65.04
2017-10-07T14:30:37.959Z,65.33
2017-10-07T14:31:29.310Z,66.56
2017-10-07T14:33:30.289Z,65.26
2017-10-07T14:34:22.596Z,65.61
2017-10-07T14:36:17.238Z,65.23
2017-10-07T14:37:25.750Z,66.00
2017-10-07T14:39:11.271Z,64.75
2017-10-07T14:40:11.329Z,65.52
2017-10-07T14:42:14.638Z,64.75
2017-10-07T14:43:05.853Z,64.75
2017-10-07T14:45:08.394Z,66.28
2017-10-07T14:45:59.090Z,65.80
2017-10-07T14:47:52.594Z,64.37
2017-10-07T14:48:52.537Z,63.89
2017-10-07T14:50:45.899Z,64.75
2017-10-07T14:51:46.000Z,65.71
2017-10-07T14:53:39.556Z,64.75
2017-10-07T14:54:39.491Z,64.37
2017-10-07T14:56:33.006Z,63.89
2017-10-07T14:57:32.771Z,64.65
2017-10-07T14:59:26.281Z,65.04
2017-10-07T15:00:26.253Z,64.75
2017-10-07T15:02:28.029Z,64.75
2017-10-07T15:03:19.614Z,64.94
2017-10-07T15:05:12.995Z,63.89
2017-10-07T15:06:12.965Z,63.99
2017-10-07T15:08:06.474Z,65.61
2017-10-07T15:09:06.419Z,64.94
2017-10-07T15:10:59.743Z,66.09
2017-10-07T15:11:59.839Z,65.14
2017-10-07T15:13:53.315Z,67.24
2017-10-07T15:14:53.294Z,66.38
2017-10-07T15:16:49.282Z,65.42
2017-10-07T15:17:46.632Z,64.37
2017-10-07T15:19:39.807Z,65.04
2017-10-07T15:20:39.841Z,65.80
2017-10-07T15:22:33.327Z,65.71
2017-10-07T15:23:33.182Z,64.81
2017-10-07T15:25:27.077Z,65.48
2017-10-07T15:26:26.728Z,65.77
2017-10-07T15:28:29.941Z,67.77
2017-10-07T15:29:21.373Z,65.96
2017-10-07T15:31:14.823Z,65.77
2017-10-07T15:32:26.144Z,67.21
2017-10-07T15:34:08.237Z,67.30
2017-10-07T15:35:08.017Z,66.82
2017-10-07T15:37:01.393Z,67.21
2017-10-07T15:39:22.572Z,68.16
2017-10-07T15:40:22.756Z,68.82
2017-10-07T15:42:16.289Z,67.87
2017-10-07T15:43:15.933Z,68.06
2017-10-07T15:45:10.613Z,68.82
2017-10-07T15:46:10.261Z,71.02
2017-10-07T15:49:03.678Z,69.49
2017-10-07T15:50:57.844Z,70.45
2017-10-07T15:51:57.926Z,70.92
2017-10-07T15:53:52.441Z,71.98
2017-10-07T15:54:52.282Z,71.98
2017-10-07T15:56:47.011Z,71.59
2017-10-07T15:57:47.552Z,71.88
2017-10-07T15:59:41.202Z,73.12
2017-10-07T16:00:41.234Z,73.69
2017-10-07T16:02:35.519Z,73.32
2017-10-07T16:03:35.537Z,73.98
2017-10-07T16:05:29.029Z,73.41
2017-10-07T16:06:29.003Z,72.71
2017-10-07T16:08:23.423Z,72.26
2017-10-07T16:09:23.417Z,74.04
2017-10-07T16:11:17.857Z,74.04
2017-10-07T16:12:18.283Z,73.28
2017-10-07T16:14:11.287Z,71.27
2017-10-07T16:15:11.271Z,70.22
2017-10-07T16:17:06.444Z,70.70
2017-10-07T16:18:05.842Z,71.66
2017-10-07T16:20:59.956Z,70.61
2017-10-07T16:22:54.680Z,74.23
2017-10-07T16:23:54.831Z,72.23
2017-10-07T16:25:49.177Z,70.89
2017-10-07T16:26:48.998Z,71.08
2017-10-07T16:28:44.325Z,70.98
2017-10-07T16:29:44.320Z,71.46
2017-10-07T16:31:37.679Z,70.79
2017-10-07T16:32:37.689Z,71.18
2017-10-07T16:34:32.655Z,70.89
2017-10-07T16:35:33.252Z,72.03
2017-10-07T16:37:26.873Z,71.94
2017-10-07T16:38:26.889Z,71.75
2017-10-07T16:40:19.607Z,72.23
2017-10-07T16:42:34.952Z,72.13
2017-10-07T16:43:34.679Z,73.72
2017-10-07T16:45:28.090Z,72.86
2017-10-07T16:46:28.054Z,72.57
2017-10-07T16:48:21.464Z,72.57
2017-10-07T16:49:21.488Z,73.52
2017-10-07T16:51:14.896Z,73.33
2017-10-07T16:52:14.886Z,73.62
2017-10-07T16:54:08.339Z,74.67
2017-10-07T16:55:08.295Z,74.57
2017-10-07T16:57:01.756Z,74.67
2017-10-07T16:58:01.767Z,74.10
2017-10-07T16:59:55.546Z,73.24
2017-10-07T17:00:55.247Z,74.19
2017-10-07T17:02:48.644Z,75.91
2017-10-07T17:03:48.584Z,75.81
2017-10-07T17:05:42.952Z,75.24
2017-10-07T17:06:42.958Z,76.10
2017-10-07T17:08:36.352Z,74.96
2017-10-07T17:09:36.468Z,74.67
2017-10-07T17:11:29.839Z,75.24
2017-10-07T17:12:29.752Z,75.05
2017-10-07T17:14:23.476Z,74.67
2017-10-07T17:15:23.184Z,74.38
2017-10-07T17:17:16.574Z,74.86
2017-10-07T17:18:16.609Z,74.96
2017-10-07T17:20:10.003Z,75.05
2017-10-07T17:21:10.019Z,75.87
2017-10-07T17:23:04.407Z,75.30
2017-10-07T17:24:04.394Z,75.78
2017-10-07T17:25:57.792Z,75.87
2017-10-07T17:26:57.817Z,75.96
2017-10-07T17:28:51.232Z,75.40
2017-10-07T17:29:51.250Z,75.30
2017-10-07T17:31:45.698Z,75.20
2017-10-07T17:32:45.639Z,74.82
2017-10-07T17:34:39.204Z,74.92
2017-10-07T17:35:39.121Z,74.73
2017-10-07T17:37:32.463Z,74.16
2017-10-07T17:38:32.471Z,73.77
2017-10-07T17:40:25.834Z,74.25
2017-10-07T17:41:25.886Z,74.82
2017-10-07T17:43:20.237Z,74.82
2017-10-07T17:44:20.295Z,74.16
2017-10-07T17:46:13.706Z,73.68
2017-10-07T17:47:13.653Z,73.39
2017-10-07T17:49:07.128Z,73.11
2017-10-07T17:50:07.105Z,73.21
2017-10-07T17:52:02.083Z,73.30
2017-10-07T17:53:01.904Z,72.25
2017-10-07T17:54:57.296Z,72.25
2017-10-07T17:55:57.267Z,72.63
2017-10-07T17:57:52.766Z,72.06
2017-10-07T17:58:52.598Z,71.30
2017-10-07T18:00:48.679Z,71.20
2017-10-07T18:01:57.523Z,72.92
2017-10-07T18:05:28.612Z,70.92
2017-10-07T18:06:28.670Z,70.92
2017-10-07T18:08:23.401Z,70.82
2017-10-07T18:09:23.339Z,71.30
2017-10-07T18:11:16.983Z,70.72
2017-10-07T18:12:17.195Z,71.01
2017-10-07T18:14:10.270Z,71.11
2017-10-07T18:15:10.340Z,70.82
2017-10-07T18:17:03.806Z,69.96
2017-10-07T18:18:03.748Z,70.53
2017-10-07T18:19:57.536Z,71.77
2017-10-07T18:20:57.085Z,72.53
2017-10-07T18:22:51.643Z,72.72
2017-10-07T18:23:51.612Z,71.48
2017-10-07T18:25:46.135Z,70.92
2017-10-07T18:26:46.138Z,70.82
2017-10-07T18:28:41.525Z,70.53
2017-10-07T18:29:41.410Z,70.34
2017-10-07T18:31:36.238Z,70.92
2017-10-07T18:32:35.962Z,70.92
2017-10-07T18:34:30.310Z,71.96
2017-10-07T18:35:30.300Z,71.58
2017-10-07T18:37:24.848Z,71.11
2017-10-07T18:38:24.761Z,71.30
2017-10-07T18:40:19.539Z,71.87
2017-10-07T18:41:19.519Z,71.87
2017-10-07T18:43:13.674Z,72.63
2017-10-07T18:44:14.211Z,72.53
2017-10-07T18:46:06.979Z,73.21